createdAt,value
2017-04-17T00:00:22.257Z,968.96
2017-04-17T00:01:31.021Z,968.93
2017-04-17T00:02:39.787Z,968.95
2017-04-17T00:03:49.674Z,968.91
2017-04-17T00:04:59.341Z,968.93
2017-04-17T00:06:08.655Z,968.91
2017-04-17T00:07:17.724Z,968.88
2017-04-17T00:08:26.485Z,968.89
2017-04-17T00:09:35.561Z,968.87
2017-04-17T00:10:44.933Z,968.89
2017-04-17T00:11:53.688Z,968.85
2017-04-17T00:13:02.435Z,968.88
2017-04-17T00:14:11.722Z,968.83
2017-04-17T00:15:20.790Z,968.85
2017-04-17T00:16:29.864Z,968.78
2017-04-17T00:17:38.937Z,968.77
2017-04-17T00:18:48.496Z,968.8
2017-04-17T00:19:57.835Z,968.79
2017-04-17T00:21:06.892Z,968.78
2017-04-17T00:22:15.659Z,968.79
2017-04-17T00:23:25.032Z,968.83
2017-04-17T00:24:34.705Z,968.82
2017-04-17T00:25:43.464Z,968.86
2017-04-17T00:26:52.212Z,968.84
2017-04-17T00:28:00.913Z,968.8
2017-04-17T00:29:10.014Z,968.79
2017-04-17T00:30:19.378Z,968.76
2017-04-17T00:31:28.084Z,968.75
2017-04-17T00:32:37.133Z,968.75
2017-04-17T00:33:46.487Z,968.73
2017-04-17T00:34:55.560Z,968.74
2017-04-17T00:36:04.627Z,968.72
2017-04-17T00:37:13.393Z,968.69
2017-04-17T00:38:23.079Z,968.74
2017-04-17T00:39:32.143Z,968.69
2017-04-17T00:40:41.200Z,968.66
2017-04-17T00:41:49.959Z,968.62
2017-04-17T00:42:59.587Z,968.61
2017-04-17T00:44:08.927Z,968.57
2017-04-17T00:45:18.912Z,968.54
2017-04-17T00:46:28.186Z,968.53
2017-04-17T00:47:37.195Z,968.54
2017-04-17T00:48:46.875Z,968.58
2017-04-17T00:49:56.250Z,968.52
2017-04-17T00:51:05.048Z,968.48
2017-04-17T00:52:13.812Z,968.51
2017-04-17T00:53:23.182Z,968.52
2017-04-17T00:54:32.556Z,968.48
2017-04-17T00:55:41.615Z,968.47
2017-04-17T00:56:50.382Z,968.43
2017-04-17T00:57:59.129Z,968.42
2017-04-17T00:59:08.193Z,968.41
2017-04-17T01:00:17.863Z,968.39
2017-04-17T01:01:26.923Z,968.4
2017-04-17T01:02:35.985Z,968.43
2017-04-17T01:03:45.351Z,968.43
2017-04-17T01:04:54.718Z,968.38
2017-04-17T01:06:04.033Z,968.38
2017-04-17T01:07:13.704Z,968.38
2017-04-17T01:08:23.122Z,968.38
2017-04-17T01:09:32.847Z,968.32
2017-04-17T01:10:42.093Z,968.36
2017-04-17T01:11:51.482Z,968.34
2017-04-17T01:13:00.255Z,968.3
2017-04-17T01:14:09.309Z,968.31
2017-04-17T01:15:18.614Z,968.32
2017-04-17T01:16:27.628Z,968.28
2017-04-17T01:17:36.699Z,968.26
2017-04-17T01:18:45.710Z,968.25
2017-04-17T01:19:55.039Z,968.27
2017-04-17T01:21:04.117Z,968.25
2017-04-17T01:22:13.190Z,968.25
2017-04-17T01:23:21.955Z,968.25
2017-04-17T01:24:31.637Z,968.25
2017-04-17T01:25:41.023Z,968.23
2017-04-17T01:26:49.803Z,968.18
2017-04-17T01:27:59.421Z,968.21
2017-04-17T01:29:08.171Z,968.24
2017-04-17T01:30:17.542Z,968.24
2017-04-17T01:31:26.291Z,968.2
2017-04-17T01:32:34.991Z,968.14
2017-04-17T01:33:44.576Z,968.17
2017-04-17T01:34:53.648Z,968.14
2017-04-17T01:36:02.660Z,968.13
2017-04-17T01:37:12.016Z,968.13
2017-04-17T01:38:21.335Z,968.07
2017-04-17T01:39:30.712Z,968.1
2017-04-17T01:40:40.115Z,968.13
2017-04-17T01:41:49.473Z,968.09
2017-04-17T01:42:58.783Z,968.09
2017-04-17T01:44:08.458Z,968.08
2017-04-17T01:45:17.833Z,968.06
2017-04-17T01:46:26.589Z,968.02
2017-04-17T01:47:35.647Z,968.02
2017-04-17T01:48:45.314Z,967.99
2017-04-17T01:49:54.034Z,967.93
2017-04-17T01:51:03.109Z,967.91
2017-04-17T01:52:11.962Z,967.86
2017-04-17T01:53:21.387Z,967.86
2017-04-17T01:54:30.447Z,967.86
2017-04-17T01:55:39.158Z,967.85
2017-04-17T01:56:47.952Z,967.86
2017-04-17T01:57:57.497Z,967.78
2017-04-17T01:59:06.570Z,967.77
2017-04-17T02:00:15.638Z,967.74
2017-04-17T02:01:24.393Z,967.73
2017-04-17T02:02:33.117Z,967.77
2017-04-17T02:03:42.482Z,967.75
2017-04-17T02:04:51.551Z,967.76
2017-04-17T02:06:00.933Z,967.78
2017-04-17T02:07:09.999Z,967.78
2017-04-17T02:08:18.763Z,967.77
2017-04-17T02:09:27.832Z,967.76
2017-04-17T02:10:36.897Z,967.69
2017-04-17T02:11:45.963Z,967.67
2017-04-17T02:12:55.309Z,967.68
2017-04-17T02:14:04.927Z,967.64
2017-04-17T02:15:13.697Z,967.62
2017-04-17T02:16:23.365Z,967.62
2017-04-17T02:17:32.125Z,967.58
2017-04-17T02:18:41.477Z,967.54
2017-04-17T02:19:50.178Z,967.57
2017-04-17T02:20:59.255Z,967.51
2017-04-17T02:22:08.311Z,967.46
2017-04-17T02:23:17.014Z,967.46
2017-04-17T02:24:25.743Z,967.45
2017-04-17T02:25:35.119Z,967.41
2017-04-17T02:26:43.897Z,967.38
2017-04-17T02:27:52.979Z,967.37
2017-04-17T02:29:02.047Z,967.34
2017-04-17T02:30:11.423Z,967.32
2017-04-17T02:31:20.492Z,967.3
2017-04-17T02:32:29.811Z,967.26
2017-04-17T02:33:39.177Z,967.27
2017-04-17T02:34:48.237Z,967.17
2017-04-17T02:35:57.296Z,967.16
2017-04-17T02:37:06.045Z,967.18
2017-04-17T02:38:15.054Z,967.16
2017-04-17T02:39:24.419Z,967.11
2017-04-17T02:40:33.808Z,967.07
2017-04-17T02:41:43.810Z,967.05
2017-04-17T02:42:52.876Z,967.06
2017-04-17T02:44:01.932Z,967.01
2017-04-17T02:45:11.544Z,967
2017-04-17T02:46:20.982Z,966.96
2017-04-17T02:47:29.692Z,966.98
2017-04-17T02:48:38.766Z,966.95
2017-04-17T02:49:47.825Z,966.92
2017-04-17T02:50:57.206Z,966.94
2017-04-17T02:52:06.574Z,966.96
2017-04-17T02:53:15.620Z,966.97
2017-04-17T02:54:24.672Z,966.9
2017-04-17T02:55:34.039Z,966.89
2017-04-17T02:56:43.105Z,966.82
2017-04-17T02:57:51.867Z,966.76
2017-04-17T02:59:00.816Z,966.81
2017-04-17T03:00:10.804Z,966.78
2017-04-17T03:01:19.868Z,966.74
2017-04-17T03:02:28.928Z,966.76
2017-04-17T03:03:37.670Z,966.75
2017-04-17T03:04:47.286Z,966.76
2017-04-17T03:05:56.047Z,966.73
2017-04-17T03:07:04.805Z,966.72
2017-04-17T03:08:13.868Z,966.72
2017-04-17T03:09:23.277Z,966.72
2017-04-17T03:10:32.941Z,966.7
2017-04-17T03:11:42.292Z,966.7
2017-04-17T03:12:50.986Z,966.65
2017-04-17T03:14:00.301Z,966.67
2017-04-17T03:15:09.955Z,966.65
2017-04-17T03:16:18.655Z,966.67
2017-04-17T03:17:27.413Z,966.68
2017-04-17T03:18:36.784Z,966.64
2017-04-17T03:19:45.535Z,966.64
2017-04-17T03:20:54.904Z,966.58
2017-04-17T03:22:03.968Z,966.58
2017-04-17T03:23:13.017Z,966.55
2017-04-17T03:24:22.358Z,966.54
2017-04-17T03:25:31.414Z,966.55
2017-04-17T03:26:40.778Z,966.5
2017-04-17T03:27:49.479Z,966.46
2017-04-17T03:28:58.840Z,966.45
2017-04-17T03:30:07.904Z,966.47
2017-04-17T03:31:16.681Z,966.47
2017-04-17T03:32:25.947Z,966.48
2017-04-17T03:33:35.016Z,966.44
2017-04-17T03:34:44.084Z,966.4
2017-04-17T03:35:52.836Z,966.39
2017-04-17T03:37:01.928Z,966.44
2017-04-17T03:38:10.986Z,966.4
2017-04-17T03:39:20.150Z,966.44
2017-04-17T03:40:29.264Z,966.38
2017-04-17T03:41:38.047Z,966.39
2017-04-17T03:42:46.801Z,966.4
2017-04-17T03:43:55.866Z,966.36
2017-04-17T03:45:05.842Z,966.34
2017-04-17T03:46:14.897Z,966.36
2017-04-17T03:47:24.201Z,966.34
2017-04-17T03:48:33.259Z,966.31
2017-04-17T03:49:42.629Z,966.29
2017-04-17T03:50:52.296Z,966.3
2017-04-17T03:52:01.059Z,966.31
2017-04-17T03:53:10.119Z,966.3
2017-04-17T03:54:19.483Z,966.25
2017-04-17T03:55:28.540Z,966.22
2017-04-17T03:56:37.918Z,966.2
2017-04-17T03:57:47.281Z,966.19
2017-04-17T03:58:56.051Z,966.15
2017-04-17T04:00:05.728Z,966.15
2017-04-17T04:01:14.794Z,966.14
2017-04-17T04:02:24.056Z,966.13
2017-04-17T04:03:33.112Z,966.11
2017-04-17T04:04:42.477Z,966.07
2017-04-17T04:05:51.170Z,966.07
2017-04-17T04:07:00.215Z,966.03
2017-04-17T04:08:09.002Z,966.03
2017-04-17T04:09:18.066Z,966.02
2017-04-17T04:10:26.808Z,966.07
2017-04-17T04:11:35.812Z,966.08
2017-04-17T04:12:44.890Z,966.13
2017-04-17T04:13:54.463Z,966.11
2017-04-17T04:15:03.219Z,966.08
2017-04-17T04:16:11.975Z,966.07
2017-04-17T04:17:20.725Z,966.08
2017-04-17T04:18:29.795Z,966.06
2017-04-17T04:19:39.168Z,966.11
2017-04-17T04:20:48.230Z,966.06
2017-04-17T04:21:56.978Z,966.06
2017-04-17T04:23:06.000Z,965.99
2017-04-17T04:24:14.809Z,965.99
2017-04-17T04:25:24.261Z,965.97
2017-04-17T04:26:33.422Z,965.97
2017-04-17T04:27:43.101Z,965.93
2017-04-17T04:28:51.796Z,965.97
2017-04-17T04:30:00.848Z,965.99
2017-04-17T04:31:09.953Z,965.93
2017-04-17T04:32:19.452Z,965.95
2017-04-17T04:33:28.459Z,965.92
2017-04-17T04:34:37.822Z,965.92
2017-04-17T04:35:46.876Z,965.89
2017-04-17T04:36:55.622Z,965.89
2017-04-17T04:38:04.688Z,965.89
2017-04-17T04:39:13.447Z,965.89
2017-04-17T04:40:22.813Z,965.91
2017-04-17T04:41:31.572Z,965.91
2017-04-17T04:42:40.332Z,965.84
2017-04-17T04:43:49.402Z,965.84
2017-04-17T04:44:58.968Z,965.9
2017-04-17T04:46:08.039Z,965.86
2017-04-17T04:47:17.079Z,965.85
2017-04-17T04:48:26.089Z,965.84
2017-04-17T04:49:35.459Z,965.86
2017-04-17T04:50:44.511Z,965.84
2017-04-17T04:51:53.580Z,965.82
2017-04-17T04:53:02.579Z,965.8
2017-04-17T04:54:11.950Z,965.77
2017-04-17T04:55:20.947Z,965.76
2017-04-17T04:56:29.997Z,965.76
2017-04-17T04:57:39.344Z,965.74
2017-04-17T04:58:48.353Z,965.72
2017-04-17T04:59:57.418Z,965.71
2017-04-17T05:01:06.993Z,965.7
2017-04-17T05:02:16.674Z,965.64
2017-04-17T05:03:25.743Z,965.69
2017-04-17T05:04:34.793Z,965.63
2017-04-17T05:05:44.098Z,965.64
2017-04-17T05:06:52.864Z,965.64
2017-04-17T05:08:01.929Z,965.65
2017-04-17T05:09:10.679Z,965.6
2017-04-17T05:10:20.303Z,965.63
2017-04-17T05:11:29.867Z,965.63
2017-04-17T05:12:38.915Z,965.62
2017-04-17T05:13:48.838Z,965.61
2017-04-17T05:14:58.200Z,965.66
2017-04-17T05:16:07.263Z,965.66
2017-04-17T05:17:16.323Z,965.64
2017-04-17T05:18:25.397Z,965.65
2017-04-17T05:19:34.146Z,965.68
2017-04-17T05:20:42.891Z,965.67
2017-04-17T05:21:51.597Z,965.7
2017-04-17T05:23:00.650Z,965.73
2017-04-17T05:24:09.738Z,965.69
2017-04-17T05:25:19.112Z,965.72
2017-04-17T05:26:28.176Z,965.69
2017-04-17T05:27:37.500Z,965.72
2017-04-17T05:28:46.790Z,965.69
2017-04-17T05:29:55.791Z,965.64
2017-04-17T05:31:04.623Z,965.61
2017-04-17T05:32:13.370Z,965.59
2017-04-17T05:33:22.978Z,965.56
2017-04-17T05:34:32.035Z,965.5
2017-04-17T05:35:41.045Z,965.52
2017-04-17T05:36:49.811Z,965.48
2017-04-17T05:37:58.559Z,965.45
2017-04-17T05:39:07.925Z,965.43
2017-04-17T05:40:16.998Z,965.47
2017-04-17T05:41:25.768Z,965.45
2017-04-17T05:42:34.856Z,965.4
2017-04-17T05:43:44.205Z,965.45
2017-04-17T05:44:52.915Z,965.45
2017-04-17T05:46:01.900Z,965.46
2017-04-17T05:47:10.657Z,965.52
2017-04-17T05:48:19.420Z,965.53
2017-04-17T05:49:28.481Z,965.55
2017-04-17T05:50:37.840Z,965.62
2017-04-17T05:51:46.602Z,965.63
2017-04-17T05:52:55.970Z,965.68
2017-04-17T05:54:05.335Z,965.7
2017-04-17T05:55:14.705Z,965.76
2017-04-17T05:56:23.471Z,965.78
2017-04-17T05:57:32.549Z,965.78
2017-04-17T05:58:42.231Z,965.75
2017-04-17T05:59:51.909Z,965.75
2017-04-17T06:01:00.967Z,965.78
2017-04-17T06:02:09.714Z,965.76
2017-04-17T06:03:18.474Z,965.81
2017-04-17T06:04:27.382Z,965.79
2017-04-17T06:05:36.136Z,965.79
2017-04-17T06:06:45.497Z,965.75
2017-04-17T06:07:54.252Z,965.72
2017-04-17T06:09:03.313Z,965.7
2017-04-17T06:10:12.379Z,965.67
2017-04-17T06:11:21.446Z,965.67
2017-04-17T06:12:30.200Z,965.66
2017-04-17T06:13:38.958Z,965.64
2017-04-17T06:14:48.633Z,965.62
2017-04-17T06:15:57.700Z,965.66
2017-04-17T06:17:07.260Z,965.71
2017-04-17T06:18:16.018Z,965.7
2017-04-17T06:19:25.734Z,965.72
2017-04-17T06:20:35.406Z,965.75
2017-04-17T06:21:44.469Z,965.76
2017-04-17T06:22:53.224Z,965.78
2017-04-17T06:24:01.983Z,965.81
2017-04-17T06:25:11.355Z,965.78
2017-04-17T06:26:20.711Z,965.79
2017-04-17T06:27:30.050Z,965.79
2017-04-17T06:28:38.849Z,965.82
2017-04-17T06:29:48.506Z,965.79
2017-04-17T06:30:57.919Z,965.77
2017-04-17T06:32:06.981Z,965.79
2017-04-17T06:33:15.733Z,965.79
2017-04-17T06:34:24.758Z,965.71
2017-04-17T06:35:33.824Z,965.76
2017-04-17T06:36:42.870Z,965.75
2017-04-17T06:37:52.070Z,965.73
2017-04-17T06:39:00.861Z,965.7
2017-04-17T06:40:09.938Z,965.71
2017-04-17T06:41:18.690Z,965.75
2017-04-17T06:42:27.395Z,965.8
2017-04-17T06:43:36.454Z,965.85
2017-04-17T06:44:46.132Z,965.82
2017-04-17T06:45:55.207Z,965.85
2017-04-17T06:47:04.304Z,965.85
2017-04-17T06:48:13.256Z,965.84
2017-04-17T06:49:22.333Z,965.78
2017-04-17T06:50:31.382Z,965.73
2017-04-17T06:51:40.733Z,965.67
2017-04-17T06:52:50.062Z,965.65
2017-04-17T06:53:59.422Z,965.61
2017-04-17T06:55:08.786Z,965.65
2017-04-17T06:56:17.846Z,965.6
2017-04-17T06:57:27.529Z,965.56
2017-04-17T06:58:36.594Z,965.57
2017-04-17T06:59:45.862Z,965.57
2017-04-17T07:00:54.629Z,965.65
2017-04-17T07:02:03.377Z,965.65
2017-04-17T07:03:13.041Z,965.68
2017-04-17T07:04:22.435Z,965.68
2017-04-17T07:05:31.496Z,965.66
2017-04-17T07:06:41.191Z,965.71
2017-04-17T07:07:49.949Z,965.71
2017-04-17T07:08:59.924Z,965.73
2017-04-17T07:10:09.223Z,965.74
2017-04-17T07:11:18.286Z,965.73
2017-04-17T07:12:27.341Z,965.78
2017-04-17T07:13:36.065Z,965.77
2017-04-17T07:14:45.679Z,965.82
2017-04-17T07:15:55.056Z,965.84
2017-04-17T07:17:03.804Z,965.85
2017-04-17T07:18:12.806Z,965.84
2017-04-17T07:19:21.872Z,965.88
2017-04-17T07:20:31.130Z,965.91
2017-04-17T07:21:40.701Z,965.88
2017-04-17T07:22:49.709Z,965.9
2017-04-17T07:23:58.751Z,965.91
2017-04-17T07:25:08.076Z,965.9
2017-04-17T07:26:16.795Z,965.87
2017-04-17T07:27:26.196Z,965.9
2017-04-17T07:28:35.198Z,965.9
2017-04-17T07:29:44.866Z,965.86
2017-04-17T07:30:53.877Z,965.92
2017-04-17T07:32:02.629Z,965.94
2017-04-17T07:33:11.390Z,965.99
2017-04-17T07:34:20.154Z,965.98
2017-04-17T07:35:30.048Z,965.98
2017-04-17T07:36:39.104Z,965.99
2017-04-17T07:37:48.469Z,966.01
2017-04-17T07:38:57.823Z,965.98
2017-04-17T07:40:07.188Z,965.97
2017-04-17T07:41:16.251Z,965.99
2017-04-17T07:42:25.839Z,966.04
2017-04-17T07:43:35.200Z,966.03
2017-04-17T07:44:45.181Z,966.01
2017-04-17T07:45:53.981Z,965.99
2017-04-17T07:47:03.352Z,966.01
2017-04-17T07:48:12.420Z,966
2017-04-17T07:49:21.487Z,966.03
2017-04-17T07:50:30.546Z,966.05
2017-04-17T07:51:39.302Z,966
2017-04-17T07:52:48.208Z,966.07
2017-04-17T07:53:57.560Z,966.1
2017-04-17T07:55:06.560Z,966.09
2017-04-17T07:56:15.566Z,966.11
2017-04-17T07:57:25.233Z,966.14
2017-04-17T07:58:34.002Z,966.11
2017-04-17T07:59:44.276Z,966.15
2017-04-17T08:00:53.881Z,966.12
2017-04-17T08:02:02.644Z,966.14
2017-04-17T08:03:11.898Z,966.16
2017-04-17T08:04:20.959Z,966.19
2017-04-17T08:05:29.708Z,966.21
2017-04-17T08:06:38.477Z,966.22
2017-04-17T08:07:47.847Z,966.27
2017-04-17T08:08:57.728Z,966.34
2017-04-17T08:10:06.801Z,966.33
2017-04-17T08:11:15.855Z,966.33
2017-04-17T08:12:24.855Z,966.38
2017-04-17T08:13:34.375Z,966.38
2017-04-17T08:14:43.446Z,966.33
2017-04-17T08:15:52.516Z,966.36
2017-04-17T08:17:01.267Z,966.39
2017-04-17T08:18:10.925Z,966.38
2017-04-17T08:19:20.602Z,966.39
2017-04-17T08:20:29.976Z,966.42
2017-04-17T08:21:38.730Z,966.46
2017-04-17T08:22:47.801Z,966.43
2017-04-17T08:23:56.867Z,966.46
2017-04-17T08:25:06.746Z,966.42
2017-04-17T08:26:16.320Z,966.41
2017-04-17T08:27:25.693Z,966.41
2017-04-17T08:28:34.763Z,966.4
2017-04-17T08:29:43.610Z,966.38
2017-04-17T08:30:53.282Z,966.39
2017-04-17T08:32:02.344Z,966.42
2017-04-17T08:33:11.090Z,966.38
2017-04-17T08:34:20.104Z,966.45
2017-04-17T08:35:29.874Z,966.38
2017-04-17T08:36:38.945Z,966.38
2017-04-17T08:37:48.006Z,966.41
2017-04-17T08:38:57.079Z,966.48
2017-04-17T08:40:06.458Z,966.47
2017-04-17T08:41:15.214Z,966.46
2017-04-17T08:42:23.977Z,966.49
2017-04-17T08:43:33.044Z,966.48
2017-04-17T08:44:42.430Z,966.56
2017-04-17T08:45:51.997Z,966.58
2017-04-17T08:47:01.061Z,966.57
2017-04-17T08:48:10.123Z,966.6
2017-04-17T08:49:19.503Z,966.64
2017-04-17T08:50:29.172Z,966.66
2017-04-17T08:51:38.240Z,966.65
2017-04-17T08:52:47.612Z,966.67
2017-04-17T08:53:56.372Z,966.7
2017-04-17T08:55:05.369Z,966.7
2017-04-17T08:56:14.381Z,966.74
2017-04-17T08:57:23.470Z,966.72
2017-04-17T08:58:32.835Z,966.73
2017-04-17T08:59:41.898Z,966.75
2017-04-17T09:00:50.963Z,966.74
2017-04-17T09:01:59.735Z,966.76
2017-04-17T09:03:08.475Z,966.78
2017-04-17T09:04:17.204Z,966.81
2017-04-17T09:05:26.566Z,966.86
2017-04-17T09:06:35.627Z,966.83
2017-04-17T09:07:44.999Z,966.9
2017-04-17T09:08:54.361Z,966.9
2017-04-17T09:10:03.067Z,966.92
2017-04-17T09:11:11.833Z,966.94
2017-04-17T09:12:20.586Z,966.92
2017-04-17T09:13:29.286Z,966.97
2017-04-17T09:14:38.370Z,967.02
2017-04-17T09:15:47.425Z,967.03
2017-04-17T09:16:56.477Z,967.05
2017-04-17T09:18:05.226Z,967.05
2017-04-17T09:19:14.277Z,967.08
2017-04-17T09:20:23.587Z,967.06
2017-04-17T09:21:32.958Z,967.08
2017-04-17T09:22:41.723Z,967.15
2017-04-17T09:23:51.100Z,967.11
2017-04-17T09:25:00.475Z,967.13
2017-04-17T09:26:09.533Z,967.14
2017-04-17T09:27:18.875Z,967.19
2017-04-17T09:28:28.044Z,967.19
2017-04-17T09:29:37.359Z,967.22
2017-04-17T09:30:46.733Z,967.23
2017-04-17T09:31:55.654Z,967.24
2017-04-17T09:33:05.147Z,967.23
2017-04-17T09:34:13.909Z,967.23
2017-04-17T09:35:23.276Z,967.24
2017-04-17T09:36:32.040Z,967.25
2017-04-17T09:37:41.320Z,967.24
2017-04-17T09:38:50.763Z,967.28
2017-04-17T09:40:00.424Z,967.27
2017-04-17T09:41:09.192Z,967.32
2017-04-17T09:42:17.938Z,967.35
2017-04-17T09:43:26.962Z,967.39
2017-04-17T09:44:36.937Z,967.4
2017-04-17T09:45:45.695Z,967.43
2017-04-17T09:46:54.757Z,967.39
2017-04-17T09:48:03.834Z,967.44
2017-04-17T09:49:12.846Z,967.43
2017-04-17T09:50:22.521Z,967.44
2017-04-17T09:51:31.291Z,967.42
2017-04-17T09:52:40.052Z,967.43
2017-04-17T09:53:49.721Z,967.44
2017-04-17T09:54:58.782Z,967.48
2017-04-17T09:56:07.533Z,967.45
2017-04-17T09:57:16.271Z,967.43
2017-04-17T09:58:25.283Z,967.42
2017-04-17T09:59:34.657Z,967.4
2017-04-17T10:00:43.716Z,967.42
2017-04-17T10:01:52.721Z,967.41
2017-04-17T10:03:01.786Z,967.41
2017-04-17T10:04:10.853Z,967.43
2017-04-17T10:05:20.524Z,967.48
2017-04-17T10:06:29.888Z,967.41
2017-04-17T10:07:38.652Z,967.45
2017-04-17T10:08:48.025Z,967.45
2017-04-17T10:09:57.083Z,967.43
2017-04-17T10:11:06.149Z,967.47
2017-04-17T10:12:14.900Z,967.46
2017-04-17T10:13:24.274Z,967.47
2017-04-17T10:14:33.635Z,967.47
2017-04-17T10:15:42.690Z,967.49
2017-04-17T10:16:51.753Z,967.47
2017-04-17T10:18:00.517Z,967.51
2017-04-17T10:19:09.582Z,967.49
2017-04-17T10:20:18.903Z,967.54
2017-04-17T10:21:27.961Z,967.47
2017-04-17T10:22:36.961Z,967.45
2017-04-17T10:23:45.669Z,967.45
2017-04-17T10:24:54.412Z,967.7
2017-04-17T10:26:03.412Z,967.43
2017-04-17T10:27:12.171Z,967.61
2017-04-17T10:28:20.949Z,967.69
2017-04-17T10:29:29.715Z,967.81
2017-04-17T10:30:39.091Z,967.84
2017-04-17T10:31:47.864Z,967.53
2017-04-17T10:32:56.567Z,967.65
2017-04-17T10:34:05.624Z,967.58
2017-04-17T10:35:14.688Z,967.55
2017-04-17T10:36:23.453Z,967.56
2017-04-17T10:37:32.455Z,967.59
2017-04-17T10:38:41.513Z,967.54
2017-04-17T10:39:50.830Z,967.69
2017-04-17T10:41:00.206Z,967.82
2017-04-17T10:42:09.276Z,967.6
2017-04-17T10:43:18.034Z,967.69
2017-04-17T10:44:26.749Z,967.64
2017-04-17T10:45:35.818Z,967.61
2017-04-17T10:46:44.631Z,967.59
2017-04-17T10:47:53.750Z,967.64
2017-04-17T10:49:03.210Z,967.72
2017-04-17T10:50:12.176Z,967.64
2017-04-17T10:51:21.273Z,967.62
2017-04-17T10:52:31.008Z,967.65
2017-04-17T10:53:41.102Z,967.66
2017-04-17T10:54:50.487Z,967.62
2017-04-17T10:56:00.249Z,967.6
2017-04-17T10:57:09.421Z,967.71
2017-04-17T10:58:18.797Z,967.69
2017-04-17T10:59:28.474Z,967.74
2017-04-17T11:00:37.238Z,967.7
2017-04-17T11:01:46.012Z,967.77
2017-04-17T11:02:54.777Z,967.76
2017-04-17T11:04:04.140Z,967.73
2017-04-17T11:05:12.852Z,967.74
2017-04-17T11:06:21.922Z,967.72
2017-04-17T11:07:30.995Z,967.73
2017-04-17T11:08:40.373Z,967.67
2017-04-17T11:09:50.238Z,967.66
2017-04-17T11:10:59.248Z,967.66
2017-04-17T11:12:08.015Z,967.57
2017-04-17T11:13:17.080Z,967.67
2017-04-17T11:14:26.153Z,967.65
2017-04-17T11:15:35.537Z,967.64
2017-04-17T11:16:44.602Z,967.63
2017-04-17T11:17:53.667Z,967.67
2017-04-17T11:19:02.736Z,967.71
2017-04-17T11:20:11.490Z,967.72
2017-04-17T11:21:21.112Z,967.77
2017-04-17T11:22:29.861Z,967.71
2017-04-17T11:23:38.879Z,967.74
2017-04-17T11:24:48.239Z,967.64
2017-04-17T11:25:57.252Z,967.73
2017-04-17T11:27:06.252Z,967.75
2017-04-17T11:28:15.322Z,967.68
2017-04-17T11:29:24.688Z,967.72
2017-04-17T11:30:33.960Z,967.63
2017-04-17T11:31:43.071Z,967.61
2017-04-17T11:32:52.137Z,967.78
2017-04-17T11:34:00.930Z,967.78
2017-04-17T11:35:09.697Z,967.72
2017-04-17T11:36:18.455Z,967.7
2017-04-17T11:37:27.822Z,967.72
2017-04-17T11:38:37.203Z,967.73
2017-04-17T11:39:46.577Z,967.7
2017-04-17T11:40:55.492Z,967.76
2017-04-17T11:42:04.866Z,967.7
2017-04-17T11:43:13.630Z,967.7
2017-04-17T11:44:22.698Z,967.72
2017-04-17T11:45:31.767Z,967.7
2017-04-17T11:46:40.837Z,967.75
2017-04-17T11:47:49.598Z,967.88
2017-04-17T11:48:58.974Z,967.9
2017-04-17T11:50:08.037Z,967.82
2017-04-17T11:51:16.841Z,967.91
2017-04-17T11:52:26.217Z,967.86
2017-04-17T11:53:35.582Z,967.91
2017-04-17T11:54:44.891Z,967.9
2017-04-17T11:55:53.585Z,967.91
2017-04-17T11:57:02.305Z,967.95
2017-04-17T11:58:11.373Z,967.94
2017-04-17T11:59:20.149Z,967.93
2017-04-17T12:00:29.403Z,967.94
2017-04-17T12:01:38.114Z,967.9
2017-04-17T12:02:46.949Z,967.84
2017-04-17T12:03:56.041Z,967.84
2017-04-17T12:05:05.106Z,967.89
2017-04-17T12:06:13.873Z,967.82
2017-04-17T12:07:23.312Z,967.82
2017-04-17T12:08:32.662Z,967.81
2017-04-17T12:09:41.379Z,967.81
2017-04-17T12:10:50.452Z,967.77
2017-04-17T12:11:59.215Z,967.77
2017-04-17T12:13:08.343Z,967.75
2017-04-17T12:14:17.141Z,967.74
2017-04-17T12:15:26.725Z,967.75
2017-04-17T12:16:35.777Z,967.78
2017-04-17T12:17:44.530Z,967.76
2017-04-17T12:18:53.900Z,967.77
2017-04-17T12:20:02.953Z,967.78
2017-04-17T12:21:11.987Z,967.77
2017-04-17T12:22:21.360Z,967.85
2017-04-17T12:23:30.634Z,967.86
2017-04-17T12:24:40.924Z,967.89
2017-04-17T12:25:50.300Z,967.86
2017-04-17T12:26:59.066Z,967.84
2017-04-17T12:28:07.845Z,967.87
2017-04-17T12:29:17.218Z,967.86
2017-04-17T12:30:25.962Z,967.86
2017-04-17T12:31:35.041Z,967.84
2017-04-17T12:32:43.804Z,967.83
2017-04-17T12:33:53.178Z,967.87
2017-04-17T12:35:02.856Z,967.89
2017-04-17T12:36:11.623Z,967.9
2017-04-17T12:37:20.368Z,967.94
2017-04-17T12:38:29.066Z,967.9
2017-04-17T12:39:38.303Z,967.9
2017-04-17T12:40:47.981Z,967.88
2017-04-17T12:41:56.690Z,967.88
2017-04-17T12:43:05.465Z,967.92
2017-04-17T12:44:14.530Z,967.88
2017-04-17T12:45:23.903Z,967.84
2017-04-17T12:46:32.962Z,967.86
2017-04-17T12:47:42.608Z,967.94
2017-04-17T12:48:51.682Z,967.95
2017-04-17T12:50:00.745Z,967.98
2017-04-17T12:51:09.506Z,967.97
2017-04-17T12:52:18.872Z,967.99
2017-04-17T12:53:27.934Z,967.98
2017-04-17T12:54:37.616Z,967.98
2017-04-17T12:55:46.687Z,967.96
2017-04-17T12:56:56.062Z,968
2017-04-17T12:58:04.822Z,967.96
2017-04-17T12:59:14.192Z,967.93
2017-04-17T13:00:23.588Z,967.95
2017-04-17T13:01:32.427Z,967.92
2017-04-17T13:02:41.141Z,967.94
2017-04-17T13:03:50.196Z,967.94
2017-04-17T13:04:59.521Z,967.92
2017-04-17T13:06:09.195Z,967.89
2017-04-17T13:07:18.272Z,967.87
2017-04-17T13:08:27.641Z,967.85
2017-04-17T13:09:36.808Z,967.78
2017-04-17T13:10:45.873Z,967.79
2017-04-17T13:11:55.245Z,967.87
2017-04-17T13:13:04.018Z,967.89
2017-04-17T13:14:12.784Z,967.84
2017-04-17T13:15:22.203Z,967.81
2017-04-17T13:16:31.253Z,967.85
2017-04-17T13:17:39.960Z,967.87
2017-04-17T13:18:49.331Z,967.87
2017-04-17T13:19:58.706Z,967.89
2017-04-17T13:21:07.768Z,967.9
2017-04-17T13:22:16.842Z,967.89
2017-04-17T13:23:26.204Z,967.86
2017-04-17T13:24:35.867Z,967.88
2017-04-17T13:25:45.236Z,967.92
2017-04-17T13:26:54.067Z,967.91
2017-04-17T13:28:02.897Z,967.87
2017-04-17T13:29:11.943Z,967.86
2017-04-17T13:30:20.955Z,967.84
2017-04-17T13:31:29.762Z,967.86
2017-04-17T13:32:39.413Z,967.79
2017-04-17T13:33:48.787Z,967.74
2017-04-17T13:34:58.416Z,967.8
2017-04-17T13:36:07.865Z,967.78
2017-04-17T13:37:16.619Z,967.73
2017-04-17T13:38:25.994Z,967.72
2017-04-17T13:39:35.378Z,967.67
2017-04-17T13:40:44.461Z,967.69
2017-04-17T13:41:53.228Z,967.74
2017-04-17T13:43:02.296Z,967.73
2017-04-17T13:44:11.062Z,967.76
2017-04-17T13:45:20.131Z,967.82
2017-04-17T13:46:29.172Z,967.79
2017-04-17T13:47:37.935Z,967.83
2017-04-17T13:48:47.314Z,967.84
2017-04-17T13:49:57.595Z,967.82
2017-04-17T13:51:06.979Z,967.78
2017-04-17T13:52:15.735Z,967.87
2017-04-17T13:53:24.794Z,967.86
2017-04-17T13:54:33.565Z,967.88
2017-04-17T13:55:43.222Z,967.91
2017-04-17T13:56:52.835Z,967.84
2017-04-17T13:58:02.416Z,967.97
2017-04-17T13:59:11.479Z,967.96
2017-04-17T14:00:20.592Z,967.95
2017-04-17T14:01:29.654Z,967.94
2017-04-17T14:02:38.682Z,967.96
2017-04-17T14:03:48.559Z,967.9
2017-04-17T14:04:57.877Z,967.91
2017-04-17T14:06:07.251Z,967.88
2017-04-17T14:07:15.996Z,967.85
2017-04-17T14:08:25.002Z,967.88
2017-04-17T14:09:34.059Z,967.82
2017-04-17T14:10:43.120Z,967.82
2017-04-17T14:11:52.489Z,967.79
2017-04-17T14:13:01.251Z,967.83
2017-04-17T14:14:10.634Z,967.87
2017-04-17T14:15:20.002Z,967.84
2017-04-17T14:16:29.065Z,967.88
2017-04-17T14:17:37.820Z,967.84
2017-04-17T14:18:47.504Z,967.82
2017-04-17T14:19:56.870Z,967.82
2017-04-17T14:21:06.682Z,967.79
2017-04-17T14:22:15.447Z,967.82
2017-04-17T14:23:24.234Z,967.79
2017-04-17T14:24:33.006Z,967.81